sensor_id;sensor_type;location;lat;lon;timestamp;P1;durP1;ratioP1;P2;durP2;ratioP2
42978;SDS011;28616;44.746;19.678;2023-07-30T00:00:04;9.85;;;5.63;;
42978;SDS011;28616;44.746;19.678;2023-07-30T00:02:31;9.10;;;5.38;;
42978;SDS011;28616;44.746;19.678;2023-07-30T00:04:57;18.67;;;7.68;;
42978;SDS011;28616;44.746;19.678;2023-07-30T00:07:22;15.02;;;5.15;;
42978;SDS011;28616;44.746;19.678;2023-07-30T00:09:48;11.50;;;5.80;;
42978;SDS011;28616;44.746;19.678;2023-07-30T00:12:14;11.18;;;5.03;;
42978;SDS011;28616;44.746;19.678;2023-07-30T00:14:40;14.05;;;5.35;;
42978;SDS011;28616;44.746;19.678;2023-07-30T00:17:05;10.38;;;4.90;;
42978;SDS011;28616;44.746;19.678;2023-07-30T00:19:31;13.50;;;4.90;;
42978;SDS011;28616;44.746;19.678;2023-07-30T00:21:57;7.07;;;4.78;;
42978;SDS011;28616;44.746;19.678;2023-07-30T00:24:23;12.15;;;5.18;;
42978;SDS011;28616;44.746;19.678;2023-07-30T00:26:48;7.95;;;5.47;;
42978;SDS011;28616;44.746;19.678;2023-07-30T00:29:14;9.63;;;5.00;;
42978;SDS011;28616;44.746;19.678;2023-07-30T00:31:40;8.68;;;5.07;;
42978;SDS011;28616;44.746;19.678;2023-07-30T00:34:05;12.50;;;5.35;;
42978;SDS011;28616;44.746;19.678;2023-07-30T00:36:31;12.98;;;5.45;;
42978;SDS011;28616;44.746;19.678;2023-07-30T00:38:57;10.18;;;5.72;;
42978;SDS011;28616;44.746;19.678;2023-07-30T00:41:23;11.48;;;5.50;;
42978;SDS011;28616;44.746;19.678;2023-07-30T00:43:48;12.70;;;6.53;;
42978;SDS011;28616;44.746;19.678;2023-07-30T00:46:14;10.80;;;6.00;;
42978;SDS011;28616;44.746;19.678;2023-07-30T00:48:40;8.25;;;6.25;;
42978;SDS011;28616;44.746;19.678;2023-07-30T00:51:06;11.25;;;6.03;;
42978;SDS011;28616;44.746;19.678;2023-07-30T00:53:34;10.50;;;6.00;;
42978;SDS011;28616;44.746;19.678;2023-07-30T00:56:01;13.93;;;5.85;;
42978;SDS011;28616;44.746;19.678;2023-07-30T00:58:27;7.47;;;5.38;;
42978;SDS011;28616;44.746;19.678;2023-07-30T01:00:53;10.15;;;6.30;;
42978;SDS011;28616;44.746;19.678;2023-07-30T01:03:20;12.07;;;5.93;;
42978;SDS011;28616;44.746;19.678;2023-07-30T01:05:46;11.10;;;6.13;;
42978;SDS011;28616;44.746;19.678;2023-07-30T01:08:11;10.38;;;5.85;;
42978;SDS011;28616;44.746;19.678;2023-07-30T01:10:37;12.65;;;5.93;;
42978;SDS011;28616;44.746;19.678;2023-07-30T01:13:05;9.45;;;5.80;;
42978;SDS011;28616;44.746;19.678;2023-07-30T01:15:34;10.55;;;5.70;;
42978;SDS011;28616;44.746;19.678;2023-07-30T01:18:01;11.90;;;5.03;;
42978;SDS011;28616;44.746;19.678;2023-07-30T01:20:30;8.15;;;5.45;;
42978;SDS011;28616;44.746;19.678;2023-07-30T01:22:57;7.85;;;5.22;;
42978;SDS011;28616;44.746;19.678;2023-07-30T01:25:24;12.82;;;5.43;;
42978;SDS011;28616;44.746;19.678;2023-07-30T01:27:55;10.30;;;5.82;;
42978;SDS011;28616;44.746;19.678;2023-07-30T01:30:26;9.15;;;5.65;;
42978;SDS011;28616;44.746;19.678;2023-07-30T01:32:57;11.57;;;5.93;;
42978;SDS011;28616;44.746;19.678;2023-07-30T01:35:27;9.63;;;5.85;;
42978;SDS011;28616;44.746;19.678;2023-07-30T01:37:55;9.93;;;5.50;;
42978;SDS011;28616;44.746;19.678;2023-07-30T01:40:21;8.68;;;5.90;;
42978;SDS011;28616;44.746;19.678;2023-07-30T01:42:48;8.10;;;5.40;;
42978;SDS011;28616;44.746;19.678;2023-07-30T01:45:14;10.52;;;5.78;;
42978;SDS011;28616;44.746;19.678;2023-07-30T01:47:40;9.20;;;5.68;;
42978;SDS011;28616;44.746;19.678;2023-07-30T01:50:06;10.60;;;5.40;;
42978;SDS011;28616;44.746;19.678;2023-07-30T01:52:32;11.38;;;5.35;;
42978;SDS011;28616;44.746;19.678;2023-07-30T01:54:58;9.07;;;5.18;;
42978;SDS011;28616;44.746;19.678;2023-07-30T01:57:25;9.45;;;5.68;;
42978;SDS011;28616;44.746;19.678;2023-07-30T01:59:52;11.50;;;5.93;;
42978;SDS011;28616;44.746;19.678;2023-07-30T02:02:17;9.80;;;5.70;;
42978;SDS011;28616;44.746;19.678;2023-07-30T02:04:43;12.60;;;6.03;;
42978;SDS011;28616;44.746;19.678;2023-07-30T02:07:09;11.13;;;6.53;;
42978;SDS011;28616;44.746;19.678;2023-07-30T02:09:35;13.07;;;6.05;;
42978;SDS011;28616;44.746;19.678;2023-07-30T02:12:01;10.38;;;6.72;;
42978;SDS011;28616;44.746;19.678;2023-07-30T02:14:27;18.65;;;6.13;;
42978;SDS011;28616;44.746;19.678;2023-07-30T02:16:52;10.90;;;6.63;;
42978;SDS011;28616;44.746;19.678;2023-07-30T02:19:18;11.60;;;6.45;;
42978;SDS011;28616;44.746;19.678;2023-07-30T02:21:44;12.32;;;6.25;;
42978;SDS011;28616;44.746;19.678;2023-07-30T02:24:09;14.15;;;6.88;;
42978;SDS011;28616;44.746;19.678;2023-07-30T02:26:39;10.43;;;6.65;;
42978;SDS011;28616;44.746;19.678;2023-07-30T02:29:05;10.30;;;6.07;;
42978;SDS011;28616;44.746;19.678;2023-07-30T02:31:31;10.27;;;6.53;;
42978;SDS011;28616;44.746;19.678;2023-07-30T02:33:57;8.85;;;5.97;;
42978;SDS011;28616;44.746;19.678;2023-07-30T02:36:23;9.00;;;6.13;;
42978;SDS011;28616;44.746;19.678;2023-07-30T02:38:49;10.93;;;6.05;;
42978;SDS011;28616;44.746;19.678;2023-07-30T02:41:16;10.32;;;6.25;;
42978;SDS011;28616;44.746;19.678;2023-07-30T02:43:41;9.73;;;6.30;;
42978;SDS011;28616;44.746;19.678;2023-07-30T02:46:07;9.48;;;5.13;;
42978;SDS011;28616;44.746;19.678;2023-07-30T02:48:33;9.90;;;4.80;;
42978;SDS011;28616;44.746;19.678;2023-07-30T02:50:59;9.23;;;5.22;;
42978;SDS011;28616;44.746;19.678;2023-07-30T02:53:24;8.25;;;5.18;;
42978;SDS011;28616;44.746;19.678;2023-07-30T02:55:50;7.72;;;4.55;;
42978;SDS011;28616;44.746;19.678;2023-07-30T02:58:16;9.18;;;4.85;;
42978;SDS011;28616;44.746;19.678;2023-07-30T03:00:42;7.90;;;4.43;;
42978;SDS011;28616;44.746;19.678;2023-07-30T03:03:07;7.43;;;4.82;;
42978;SDS011;28616;44.746;19.678;2023-07-30T03:05:33;10.57;;;4.70;;
42978;SDS011;28616;44.746;19.678;2023-07-30T03:07:59;5.72;;;4.25;;
42978;SDS011;28616;44.746;19.678;2023-07-30T03:10:25;10.00;;;5.10;;
42978;SDS011;28616;44.746;19.678;2023-07-30T03:12:50;10.98;;;5.05;;
42978;SDS011;28616;44.746;19.678;2023-07-30T03:15:16;9.88;;;4.60;;
42978;SDS011;28616;44.746;19.678;2023-07-30T03:17:42;8.65;;;5.38;;
42978;SDS011;28616;44.746;19.678;2023-07-30T03:20:08;15.50;;;5.05;;
42978;SDS011;28616;44.746;19.678;2023-07-30T03:22:34;9.00;;;5.30;;
42978;SDS011;28616;44.746;19.678;2023-07-30T03:25:00;10.32;;;5.18;;
42978;SDS011;28616;44.746;19.678;2023-07-30T03:27:25;6.53;;;4.68;;
42978;SDS011;28616;44.746;19.678;2023-07-30T03:29:51;10.80;;;5.63;;
42978;SDS011;28616;44.746;19.678;2023-07-30T03:32:17;11.27;;;5.82;;
42978;SDS011;28616;44.746;19.678;2023-07-30T03:34:43;9.63;;;5.47;;
42978;SDS011;28616;44.746;19.678;2023-07-30T03:37:08;8.77;;;5.60;;
42978;SDS011;28616;44.746;19.678;2023-07-30T03:39:35;9.50;;;5.65;;
42978;SDS011;28616;44.746;19.678;2023-07-30T03:42:00;11.45;;;5.03;;
42978;SDS011;28616;44.746;19.678;2023-07-30T03:44:26;7.68;;;5.20;;
42978;SDS011;28616;44.746;19.678;2023-07-30T03:46:52;9.10;;;5.22;;
42978;SDS011;28616;44.746;19.678;2023-07-30T03:49:18;8.75;;;5.30;;
42978;SDS011;28616;44.746;19.678;2023-07-30T03:51:43;10.85;;;5.07;;
42978;SDS011;28616;44.746;19.678;2023-07-30T03:54:09;8.82;;;4.40;;
42978;SDS011;28616;44.746;19.678;2023-07-30T03:56:35;10.15;;;5.20;;
42978;SDS011;28616;44.746;19.678;2023-07-30T03:59:01;7.45;;;4.60;;
42978;SDS011;28616;44.746;19.678;2023-07-30T04:01:26;7.57;;;4.43;;
42978;SDS011;28616;44.746;19.678;2023-07-30T04:03:54;10.77;;;5.00;;
42978;SDS011;28616;44.746;19.678;2023-07-30T04:06:19;12.13;;;5.13;;
42978;SDS011;28616;44.746;19.678;2023-07-30T04:08:45;15.35;;;5.65;;
42978;SDS011;28616;44.746;19.678;2023-07-30T04:11:11;8.70;;;5.05;;
42978;SDS011;28616;44.746;19.678;2023-07-30T04:13:37;11.30;;;5.07;;
42978;SDS011;28616;44.746;19.678;2023-07-30T04:16:02;11.02;;;4.60;;
42978;SDS011;28616;44.746;19.678;2023-07-30T04:18:28;10.68;;;4.95;;
42978;SDS011;28616;44.746;19.678;2023-07-30T04:20:54;10.25;;;4.57;;
42978;SDS011;28616;44.746;19.678;2023-07-30T04:23:23;14.63;;;5.30;;
42978;SDS011;28616;44.746;19.678;2023-07-30T04:25:49;7.80;;;4.80;;
42978;SDS011;28616;44.746;19.678;2023-07-30T04:28:16;6.20;;;4.78;;
42978;SDS011;28616;44.746;19.678;2023-07-30T04:30:42;10.40;;;4.40;;
42978;SDS011;28616;44.746;19.678;2023-07-30T04:33:07;7.85;;;4.90;;
42978;SDS011;28616;44.746;19.678;2023-07-30T04:35:33;10.23;;;5.78;;
42978;SDS011;28616;44.746;19.678;2023-07-30T04:37:59;9.10;;;4.80;;
42978;SDS011;28616;44.746;19.678;2023-07-30T04:40:25;10.70;;;5.50;;
42978;SDS011;28616;44.746;19.678;2023-07-30T04:42:51;9.60;;;5.15;;
42978;SDS011;28616;44.746;19.678;2023-07-30T04:45:16;10.77;;;5.60;;
42978;SDS011;28616;44.746;19.678;2023-07-30T04:47:42;14.20;;;6.20;;
42978;SDS011;28616;44.746;19.678;2023-07-30T04:50:08;12.75;;;6.70;;
42978;SDS011;28616;44.746;19.678;2023-07-30T04:52:34;10.57;;;6.00;;
42978;SDS011;28616;44.746;19.678;2023-07-30T04:55:00;9.80;;;6.00;;
42978;SDS011;28616;44.746;19.678;2023-07-30T04:57:25;12.27;;;6.28;;
42978;SDS011;28616;44.746;19.678;2023-07-30T04:59:51;10.77;;;5.78;;
42978;SDS011;28616;44.746;19.678;2023-07-30T05:02:17;12.95;;;6.13;;
42978;SDS011;28616;44.746;19.678;2023-07-30T05:04:43;12.05;;;6.10;;
42978;SDS011;28616;44.746;19.678;2023-07-30T05:07:09;9.98;;;5.82;;
42978;SDS011;28616;44.746;19.678;2023-07-30T05:09:35;13.48;;;6.50;;
42978;SDS011;28616;44.746;19.678;2023-07-30T05:12:02;12.18;;;6.53;;
42978;SDS011;28616;44.746;19.678;2023-07-30T05:14:28;15.23;;;7.38;;
42978;SDS011;28616;44.746;19.678;2023-07-30T05:16:54;11.23;;;6.93;;
42978;SDS011;28616;44.746;19.678;2023-07-30T05:19:20;12.20;;;6.80;;
42978;SDS011;28616;44.746;19.678;2023-07-30T05:21:46;15.15;;;6.70;;
42978;SDS011;28616;44.746;19.678;2023-07-30T05:24:12;10.50;;;6.57;;
42978;SDS011;28616;44.746;19.678;2023-07-30T05:26:38;11.10;;;6.30;;
42978;SDS011;28616;44.746;19.678;2023-07-30T05:29:05;13.35;;;6.32;;
42978;SDS011;28616;44.746;19.678;2023-07-30T05:31:31;9.00;;;5.82;;
42978;SDS011;28616;44.746;19.678;2023-07-30T05:33:57;13.27;;;6.85;;
42978;SDS011;28616;44.746;19.678;2023-07-30T05:36:23;15.57;;;5.97;;
42978;SDS011;28616;44.746;19.678;2023-07-30T05:38:49;9.73;;;6.18;;
42978;SDS011;28616;44.746;19.678;2023-07-30T05:41:15;11.88;;;6.18;;
42978;SDS011;28616;44.746;19.678;2023-07-30T05:43:42;13.07;;;6.40;;
42978;SDS011;28616;44.746;19.678;2023-07-30T05:46:08;14.70;;;6.35;;
42978;SDS011;28616;44.746;19.678;2023-07-30T05:48:34;9.45;;;6.40;;
42978;SDS011;28616;44.746;19.678;2023-07-30T05:51:00;12.95;;;5.80;;
42978;SDS011;28616;44.746;19.678;2023-07-30T05:53:26;10.40;;;5.75;;
42978;SDS011;28616;44.746;19.678;2023-07-30T05:55:52;14.93;;;6.00;;
42978;SDS011;28616;44.746;19.678;2023-07-30T05:58:18;14.07;;;6.97;;
42978;SDS011;28616;44.746;19.678;2023-07-30T06:00:45;11.25;;;6.47;;
42978;SDS011;28616;44.746;19.678;2023-07-30T06:03:11;13.57;;;6.70;;
42978;SDS011;28616;44.746;19.678;2023-07-30T06:05:40;14.57;;;6.22;;
42978;SDS011;28616;44.746;19.678;2023-07-30T06:08:07;13.75;;;6.40;;
42978;SDS011;28616;44.746;19.678;2023-07-30T06:10:37;15.07;;;6.95;;
42978;SDS011;28616;44.746;19.678;2023-07-30T06:13:06;11.70;;;5.85;;
42978;SDS011;28616;44.746;19.678;2023-07-30T06:15:32;9.57;;;5.32;;
42978;SDS011;28616;44.746;19.678;2023-07-30T06:18:00;9.50;;;5.15;;
42978;SDS011;28616;44.746;19.678;2023-07-30T06:20:27;13.57;;;6.63;;
42978;SDS011;28616;44.746;19.678;2023-07-30T06:22:53;11.18;;;5.53;;
42978;SDS011;28616;44.746;19.678;2023-07-30T06:25:19;11.75;;;6.60;;
42978;SDS011;28616;44.746;19.678;2023-07-30T06:27:45;15.18;;;6.45;;
42978;SDS011;28616;44.746;19.678;2023-07-30T06:30:11;11.70;;;6.35;;
42978;SDS011;28616;44.746;19.678;2023-07-30T06:32:37;15.98;;;7.15;;
42978;SDS011;28616;44.746;19.678;2023-07-30T06:35:04;11.68;;;6.60;;
42978;SDS011;28616;44.746;19.678;2023-07-30T06:37:30;13.48;;;6.70;;
42978;SDS011;28616;44.746;19.678;2023-07-30T06:39:56;17.70;;;7.57;;
42978;SDS011;28616;44.746;19.678;2023-07-30T06:42:22;17.30;;;6.97;;
42978;SDS011;28616;44.746;19.678;2023-07-30T06:44:48;12.00;;;5.93;;
42978;SDS011;28616;44.746;19.678;2023-07-30T06:47:15;16.33;;;6.70;;
42978;SDS011;28616;44.746;19.678;2023-07-30T06:49:41;14.88;;;6.38;;
42978;SDS011;28616;44.746;19.678;2023-07-30T06:52:07;14.55;;;6.28;;
42978;SDS011;28616;44.746;19.678;2023-07-30T06:54:33;10.45;;;6.03;;
42978;SDS011;28616;44.746;19.678;2023-07-30T06:57:00;26.48;;;6.60;;
42978;SDS011;28616;44.746;19.678;2023-07-30T06:59:26;12.48;;;6.13;;
42978;SDS011;28616;44.746;19.678;2023-07-30T07:01:52;11.70;;;6.05;;
42978;SDS011;28616;44.746;19.678;2023-07-30T07:04:18;12.32;;;6.60;;
42978;SDS011;28616;44.746;19.678;2023-07-30T07:06:45;14.00;;;6.93;;
42978;SDS011;28616;44.746;19.678;2023-07-30T07:09:11;12.10;;;6.18;;
42978;SDS011;28616;44.746;19.678;2023-07-30T07:11:37;13.82;;;5.97;;
42978;SDS011;28616;44.746;19.678;2023-07-30T07:14:04;15.63;;;6.20;;
42978;SDS011;28616;44.746;19.678;2023-07-30T07:16:30;22.17;;;6.32;;
42978;SDS011;28616;44.746;19.678;2023-07-30T07:18:56;13.55;;;5.68;;
42978;SDS011;28616;44.746;19.678;2023-07-30T07:21:22;11.02;;;5.20;;
42978;SDS011;28616;44.746;19.678;2023-07-30T07:23:48;14.27;;;6.07;;
42978;SDS011;28616;44.746;19.678;2023-07-30T07:26:14;11.60;;;5.60;;
42978;SDS011;28616;44.746;19.678;2023-07-30T07:28:40;8.43;;;4.88;;
42978;SDS011;28616;44.746;19.678;2023-07-30T07:31:07;9.05;;;4.72;;
42978;SDS011;28616;44.746;19.678;2023-07-30T07:33:33;13.88;;;5.35;;
42978;SDS011;28616;44.746;19.678;2023-07-30T07:36:06;8.60;;;4.63;;
42978;SDS011;28616;44.746;19.678;2023-07-30T07:38:32;15.18;;;5.80;;
42978;SDS011;28616;44.746;19.678;2023-07-30T07:40:59;9.55;;;4.80;;
42978;SDS011;28616;44.746;19.678;2023-07-30T07:43:25;11.98;;;5.32;;
42978;SDS011;28616;44.746;19.678;2023-07-30T07:45:52;6.13;;;3.60;;
42978;SDS011;28616;44.746;19.678;2023-07-30T07:48:18;9.15;;;4.28;;
42978;SDS011;28616;44.746;19.678;2023-07-30T07:50:45;5.65;;;3.30;;
42978;SDS011;28616;44.746;19.678;2023-07-30T07:53:11;10.45;;;3.10;;
42978;SDS011;28616;44.746;19.678;2023-07-30T07:55:37;5.20;;;2.85;;
42978;SDS011;28616;44.746;19.678;2023-07-30T07:58:03;10.35;;;3.90;;
42978;SDS011;28616;44.746;19.678;2023-07-30T08:00:29;7.10;;;3.30;;
42978;SDS011;28616;44.746;19.678;2023-07-30T08:02:55;7.00;;;3.15;;
42978;SDS011;28616;44.746;19.678;2023-07-30T08:05:21;6.63;;;3.58;;
42978;SDS011;28616;44.746;19.678;2023-07-30T08:07:49;5.32;;;3.40;;
42978;SDS011;28616;44.746;19.678;2023-07-30T08:10:15;6.10;;;3.60;;
42978;SDS011;28616;44.746;19.678;2023-07-30T08:12:42;4.88;;;3.22;;
42978;SDS011;28616;44.746;19.678;2023-07-30T08:15:08;6.40;;;3.00;;
42978;SDS011;28616;44.746;19.678;2023-07-30T08:17:34;5.80;;;2.80;;
42978;SDS011;28616;44.746;19.678;2023-07-30T08:20:00;10.35;;;3.05;;
42978;SDS011;28616;44.746;19.678;2023-07-30T08:22:27;4.22;;;2.60;;
42978;SDS011;28616;44.746;19.678;2023-07-30T08:24:53;4.70;;;2.63;;
42978;SDS011;28616;44.746;19.678;2023-07-30T08:27:19;8.27;;;2.63;;
42978;SDS011;28616;44.746;19.678;2023-07-30T08:29:45;6.72;;;3.05;;
42978;SDS011;28616;44.746;19.678;2023-07-30T08:32:11;4.93;;;2.70;;
42978;SDS011;28616;44.746;19.678;2023-07-30T08:34:37;5.78;;;2.50;;
42978;SDS011;28616;44.746;19.678;2023-07-30T08:37:04;6.63;;;2.85;;
42978;SDS011;28616;44.746;19.678;2023-07-30T08:39:30;6.55;;;3.00;;
42978;SDS011;28616;44.746;19.678;2023-07-30T08:41:56;5.57;;;2.95;;
42978;SDS011;28616;44.746;19.678;2023-07-30T08:44:22;4.10;;;2.50;;
42978;SDS011;28616;44.746;19.678;2023-07-30T08:46:48;3.95;;;2.80;;
42978;SDS011;28616;44.746;19.678;2023-07-30T08:49:14;6.05;;;2.90;;
42978;SDS011;28616;44.746;19.678;2023-07-30T08:51:41;10.45;;;3.15;;
42978;SDS011;28616;44.746;19.678;2023-07-30T08:54:07;3.30;;;1.95;;
42978;SDS011;28616;44.746;19.678;2023-07-30T08:56:35;6.95;;;2.60;;
42978;SDS011;28616;44.746;19.678;2023-07-30T08:59:01;6.13;;;2.58;;
42978;SDS011;28616;44.746;19.678;2023-07-30T09:01:29;7.50;;;2.25;;
42978;SDS011;28616;44.746;19.678;2023-07-30T09:03:58;5.45;;;2.53;;
42978;SDS011;28616;44.746;19.678;2023-07-30T09:06:28;4.38;;;2.40;;
42978;SDS011;28616;44.746;19.678;2023-07-30T09:08:54;6.53;;;2.78;;
42978;SDS011;28616;44.746;19.678;2023-07-30T09:11:20;3.63;;;2.03;;
42978;SDS011;28616;44.746;19.678;2023-07-30T09:13:46;9.52;;;2.38;;
42978;SDS011;28616;44.746;19.678;2023-07-30T09:16:13;5.13;;;2.53;;
42978;SDS011;28616;44.746;19.678;2023-07-30T09:18:44;8.05;;;3.78;;
42978;SDS011;28616;44.746;19.678;2023-07-30T09:21:11;16.63;;;6.82;;
42978;SDS011;28616;44.746;19.678;2023-07-30T09:23:43;9.10;;;4.75;;
42978;SDS011;28616;44.746;19.678;2023-07-30T09:26:10;6.40;;;2.90;;
42978;SDS011;28616;44.746;19.678;2023-07-30T09:28:36;8.10;;;2.70;;
42978;SDS011;28616;44.746;19.678;2023-07-30T09:31:07;9.15;;;3.17;;
42978;SDS011;28616;44.746;19.678;2023-07-30T09:33:34;4.50;;;2.30;;
42978;SDS011;28616;44.746;19.678;2023-07-30T09:36:03;6.70;;;2.67;;
42978;SDS011;28616;44.746;19.678;2023-07-30T09:38:30;8.13;;;3.20;;
42978;SDS011;28616;44.746;19.678;2023-07-30T09:41:01;5.90;;;2.95;;
42978;SDS011;28616;44.746;19.678;2023-07-30T09:43:34;6.97;;;3.17;;
42978;SDS011;28616;44.746;19.678;2023-07-30T09:46:04;5.68;;;2.85;;
42978;SDS011;28616;44.746;19.678;2023-07-30T09:48:31;4.30;;;2.42;;
42978;SDS011;28616;44.746;19.678;2023-07-30T09:51:02;7.70;;;3.22;;
42978;SDS011;28616;44.746;19.678;2023-07-30T09:53:32;5.97;;;3.13;;
42978;SDS011;28616;44.746;19.678;2023-07-30T09:56:02;5.40;;;2.72;;
42978;SDS011;28616;44.746;19.678;2023-07-30T09:58:28;5.75;;;2.80;;
42978;SDS011;28616;44.746;19.678;2023-07-30T10:00:55;4.70;;;2.50;;
42978;SDS011;28616;44.746;19.678;2023-07-30T10:03:21;4.32;;;2.17;;
42978;SDS011;28616;44.746;19.678;2023-07-30T10:05:47;3.78;;;2.42;;
42978;SDS011;28616;44.746;19.678;2023-07-30T10:08:19;6.65;;;2.60;;
42978;SDS011;28616;44.746;19.678;2023-07-30T10:10:45;4.75;;;2.17;;
42978;SDS011;28616;44.746;19.678;2023-07-30T10:13:12;3.85;;;2.50;;
42978;SDS011;28616;44.746;19.678;2023-07-30T10:15:38;6.88;;;2.88;;
42978;SDS011;28616;44.746;19.678;2023-07-30T10:18:04;5.20;;;2.58;;
42978;SDS011;28616;44.746;19.678;2023-07-30T10:20:32;6.57;;;2.47;;
42978;SDS011;28616;44.746;19.678;2023-07-30T10:22:58;3.70;;;2.35;;
42978;SDS011;28616;44.746;19.678;2023-07-30T10:25:29;3.13;;;2.33;;
42978;SDS011;28616;44.746;19.678;2023-07-30T10:27:55;5.05;;;2.60;;
42978;SDS011;28616;44.746;19.678;2023-07-30T10:30:22;4.95;;;2.60;;
42978;SDS011;28616;44.746;19.678;2023-07-30T10:40:31;5.10;;;2.63;;
42978;SDS011;28616;44.746;19.678;2023-07-30T10:42:57;5.22;;;2.83;;
42978;SDS011;28616;44.746;19.678;2023-07-30T10:45:25;4.40;;;2.40;;
42978;SDS011;28616;44.746;19.678;2023-07-30T10:47:51;4.22;;;2.53;;
42978;SDS011;28616;44.746;19.678;2023-07-30T10:50:21;3.28;;;2.53;;
42978;SDS011;28616;44.746;19.678;2023-07-30T10:52:47;6.72;;;2.95;;
42978;SDS011;28616;44.746;19.678;2023-07-30T10:55:14;6.88;;;2.90;;
42978;SDS011;28616;44.746;19.678;2023-07-30T10:57:41;7.47;;;3.13;;
42978;SDS011;28616;44.746;19.678;2023-07-30T11:00:08;3.65;;;2.38;;
42978;SDS011;28616;44.746;19.678;2023-07-30T11:02:35;7.00;;;2.78;;
42978;SDS011;28616;44.746;19.678;2023-07-30T11:05:13;7.05;;;2.97;;
42978;SDS011;28616;44.746;19.678;2023-07-30T11:07:41;5.00;;;2.45;;
42978;SDS011;28616;44.746;19.678;2023-07-30T11:10:14;4.70;;;3.00;;
42978;SDS011;28616;44.746;19.678;2023-07-30T11:12:41;6.28;;;3.17;;
42978;SDS011;28616;44.746;19.678;2023-07-30T11:15:07;7.35;;;2.70;;
42978;SDS011;28616;44.746;19.678;2023-07-30T11:17:33;4.70;;;2.90;;
42978;SDS011;28616;44.746;19.678;2023-07-30T11:20:00;7.20;;;3.05;;
42978;SDS011;28616;44.746;19.678;2023-07-30T11:22:30;4.50;;;2.47;;
42978;SDS011;28616;44.746;19.678;2023-07-30T11:24:57;6.40;;;2.75;;
42978;SDS011;28616;44.746;19.678;2023-07-30T11:27:23;9.07;;;3.15;;
42978;SDS011;28616;44.746;19.678;2023-07-30T11:29:56;4.72;;;2.70;;
42978;SDS011;28616;44.746;19.678;2023-07-30T11:32:22;8.77;;;3.40;;
42978;SDS011;28616;44.746;19.678;2023-07-30T11:34:53;6.60;;;2.58;;
42978;SDS011;28616;44.746;19.678;2023-07-30T11:37:20;6.35;;;2.58;;
42978;SDS011;28616;44.746;19.678;2023-07-30T11:39:48;5.97;;;2.97;;
42978;SDS011;28616;44.746;19.678;2023-07-30T11:42:14;5.50;;;3.13;;
42978;SDS011;28616;44.746;19.678;2023-07-30T11:44:41;6.57;;;2.78;;
42978;SDS011;28616;44.746;19.678;2023-07-30T11:47:07;5.35;;;3.10;;
42978;SDS011;28616;44.746;19.678;2023-07-30T11:49:34;5.88;;;2.90;;
42978;SDS011;28616;44.746;19.678;2023-07-30T11:52:07;7.85;;;3.80;;
42978;SDS011;28616;44.746;19.678;2023-07-30T11:54:33;7.15;;;2.67;;
42978;SDS011;28616;44.746;19.678;2023-07-30T11:57:00;5.95;;;3.45;;
42978;SDS011;28616;44.746;19.678;2023-07-30T11:59:26;6.00;;;3.28;;
42978;SDS011;28616;44.746;19.678;2023-07-30T12:01:52;4.30;;;2.63;;
42978;SDS011;28616;44.746;19.678;2023-07-30T12:04:18;4.43;;;2.78;;
42978;SDS011;28616;44.746;19.678;2023-07-30T12:06:48;3.72;;;2.47;;
42978;SDS011;28616;44.746;19.678;2023-07-30T12:09:15;5.93;;;2.97;;
42978;SDS011;28616;44.746;19.678;2023-07-30T12:11:44;4.00;;;2.92;;
42978;SDS011;28616;44.746;19.678;2023-07-30T12:14:10;4.68;;;2.75;;
42978;SDS011;28616;44.746;19.678;2023-07-30T12:16:36;6.40;;;3.38;;
42978;SDS011;28616;44.746;19.678;2023-07-30T12:19:03;8.15;;;3.25;;
42978;SDS011;28616;44.746;19.678;2023-07-30T12:21:29;6.72;;;3.22;;
42978;SDS011;28616;44.746;19.678;2023-07-30T12:23:56;5.65;;;3.10;;
42978;SDS011;28616;44.746;19.678;2023-07-30T12:26:22;4.68;;;2.70;;
42978;SDS011;28616;44.746;19.678;2023-07-30T12:28:48;5.70;;;3.33;;
42978;SDS011;28616;44.746;19.678;2023-07-30T12:31:14;7.80;;;4.20;;
42978;SDS011;28616;44.746;19.678;2023-07-30T12:33:40;7.50;;;3.20;;
42978;SDS011;28616;44.746;19.678;2023-07-30T12:36:06;5.32;;;3.30;;
42978;SDS011;28616;44.746;19.678;2023-07-30T12:38:32;6.68;;;3.30;;
42978;SDS011;28616;44.746;19.678;2023-07-30T12:40:59;7.10;;;3.58;;
42978;SDS011;28616;44.746;19.678;2023-07-30T12:43:25;5.00;;;2.88;;
42978;SDS011;28616;44.746;19.678;2023-07-30T12:45:51;6.38;;;3.40;;
42978;SDS011;28616;44.746;19.678;2023-07-30T12:48:18;7.18;;;3.10;;
42978;SDS011;28616;44.746;19.678;2023-07-30T12:50:45;5.75;;;2.85;;
42978;SDS011;28616;44.746;19.678;2023-07-30T12:53:11;4.82;;;3.08;;
42978;SDS011;28616;44.746;19.678;2023-07-30T12:55:39;4.28;;;2.92;;
42978;SDS011;28616;44.746;19.678;2023-07-30T12:58:05;5.13;;;2.83;;
42978;SDS011;28616;44.746;19.678;2023-07-30T13:00:32;4.70;;;2.65;;
42978;SDS011;28616;44.746;19.678;2023-07-30T13:02:58;8.57;;;3.47;;
42978;SDS011;28616;44.746;19.678;2023-07-30T13:05:24;5.85;;;3.25;;
42978;SDS011;28616;44.746;19.678;2023-07-30T13:07:50;8.52;;;3.70;;
42978;SDS011;28616;44.746;19.678;2023-07-30T13:10:17;6.07;;;3.50;;
42978;SDS011;28616;44.746;19.678;2023-07-30T13:12:43;8.15;;;3.85;;
42978;SDS011;28616;44.746;19.678;2023-07-30T13:15:58;4.60;;;3.00;;
42978;SDS011;28616;44.746;19.678;2023-07-30T13:18:26;5.80;;;2.75;;
42978;SDS011;28616;44.746;19.678;2023-07-30T13:20:52;5.18;;;2.75;;
42978;SDS011;28616;44.746;19.678;2023-07-30T13:23:18;6.80;;;2.80;;
42978;SDS011;28616;44.746;19.678;2023-07-30T13:28:23;6.93;;;2.70;;
42978;SDS011;28616;44.746;19.678;2023-07-30T13:33:04;8.35;;;2.75;;
42978;SDS011;28616;44.746;19.678;2023-07-30T13:35:30;6.32;;;2.83;;
42978;SDS011;28616;44.746;19.678;2023-07-30T13:37:56;8.55;;;3.40;;
42978;SDS011;28616;44.746;19.678;2023-07-30T13:40:24;7.45;;;4.63;;
42978;SDS011;28616;44.746;19.678;2023-07-30T13:42:50;4.72;;;2.70;;
42978;SDS011;28616;44.746;19.678;2023-07-30T13:45:17;7.90;;;2.88;;
42978;SDS011;28616;44.746;19.678;2023-07-30T13:47:43;7.97;;;3.25;;
42978;SDS011;28616;44.746;19.678;2023-07-30T13:50:09;6.85;;;3.38;;
42978;SDS011;28616;44.746;19.678;2023-07-30T13:52:35;10.80;;;3.10;;
42978;SDS011;28616;44.746;19.678;2023-07-30T13:55:01;7.53;;;3.10;;
42978;SDS011;28616;44.746;19.678;2023-07-30T13:57:28;8.35;;;3.05;;
42978;SDS011;28616;44.746;19.678;2023-07-30T13:59:54;12.93;;;2.92;;
42978;SDS011;28616;44.746;19.678;2023-07-30T14:02:20;9.70;;;3.38;;
42978;SDS011;28616;44.746;19.678;2023-07-30T14:04:46;9.75;;;3.55;;
42978;SDS011;28616;44.746;19.678;2023-07-30T14:07:12;6.10;;;3.50;;
42978;SDS011;28616;44.746;19.678;2023-07-30T14:09:40;6.78;;;3.78;;
42978;SDS011;28616;44.746;19.678;2023-07-30T14:12:08;6.63;;;3.58;;
42978;SDS011;28616;44.746;19.678;2023-07-30T14:17:47;9.25;;;3.35;;
42978;SDS011;28616;44.746;19.678;2023-07-30T14:20:15;5.20;;;2.90;;
42978;SDS011;28616;44.746;19.678;2023-07-30T14:22:41;5.97;;;3.67;;
42978;SDS011;28616;44.746;19.678;2023-07-30T14:25:08;12.45;;;3.75;;
42978;SDS011;28616;44.746;19.678;2023-07-30T14:27:34;7.40;;;3.33;;
42978;SDS011;28616;44.746;19.678;2023-07-30T14:30:00;6.82;;;3.50;;
42978;SDS011;28616;44.746;19.678;2023-07-30T14:32:26;8.40;;;3.85;;
42978;SDS011;28616;44.746;19.678;2023-07-30T14:34:52;12.57;;;5.07;;
42978;SDS011;28616;44.746;19.678;2023-07-30T14:45:10;10.25;;;6.82;;
42978;SDS011;28616;44.746;19.678;2023-07-30T14:47:36;10.40;;;7.03;;